Time;durP1;ratioP1;P1;durP2;ratioP2;P2;SDS_P1;SDS_P2;PMS_P1;PMS_P2;Temp;Humidity;BMP_temperature;BMP_pressure;BME280_temperature;BME280_humidity;BME280_pressure;Samples;Min_cycle;Max_cycle;Signal;HPM_P1;HPM_P2
2022/01/18 00:01:34;;;;;;;9.43;7.03;;;3.80;99.90;;;;;;4919841;29;20196;-74
2022/01/18 00:04:00;;;;;;;10.03;7.03;;;3.80;99.90;;;;;;4918288;29;20700;-75
2022/01/18 00:06:26;;;;;;;7.93;6.53;;;3.80;99.90;;;;;;4917654;29;20199;-74
2022/01/18 00:08:52;;;;;;;8.80;7.07;;;3.80;99.90;;;;;;4918158;29;20188;-74
2022/01/18 00:11:21;;;;;;;9.93;7.07;;;3.90;99.90;;;;;;4917991;29;20176;-74
2022/01/18 00:13:55;;;;;;;10.70;6.90;;;3.80;99.90;;;;;;4917868;29;20199;-75
2022/01/18 00:18:52;;;;;;;8.70;7.33;;;3.80;99.90;;;;;;4917765;29;20646;-74
2022/01/18 00:22:03;;;;;;;9.63;6.87;;;3.80;99.90;;;;;;4917904;29;20218;-74
2022/01/18 00:24:07;;;;;;;8.80;6.83;;;3.80;99.90;;;;;;4916943;29;20719;-74
2022/01/18 00:26:33;;;;;;;9.10;6.90;;;3.80;99.90;;;;;;4917182;29;20208;-75
2022/01/18 00:29:06;;;;;;;9.23;7.10;;;3.80;99.90;;;;;;4917641;29;20179;-74
2022/01/18 00:36:39;;;;;;;9.13;6.90;;;3.90;99.90;;;;;;4917022;29;20231;-75
2022/01/18 00:39:08;;;;;;;10.00;6.90;;;3.90;99.90;;;;;;4917303;29;20184;-75
2022/01/18 00:41:35;;;;;;;8.60;6.87;;;3.90;99.90;;;;;;4917235;29;20676;-75
2022/01/18 00:44:01;;;;;;;8.27;7.03;;;3.90;99.90;;;;;;4917365;29;20303;-75
2022/01/18 00:46:26;;;;;;;9.60;7.37;;;3.80;99.90;;;;;;4916918;29;20287;-75
2022/01/18 00:48:55;;;;;;;12.03;7.30;;;3.90;99.90;;;;;;4916845;29;20192;-75
2022/01/18 00:51:21;;;;;;;11.10;7.10;;;3.90;99.90;;;;;;4917052;29;20184;-75
2022/01/18 00:53:48;;;;;;;9.07;6.30;;;3.80;99.90;;;;;;4917149;29;20186;-75
2022/01/18 00:56:25;;;;;;;10.40;7.30;;;3.80;99.90;;;;;;4916501;29;20248;-74
2022/01/18 00:58:52;;;;;;;8.43;6.77;;;3.80;99.90;;;;;;4917392;29;20202;-75
2022/01/18 01:01:20;;;;;;;11.63;7.67;;;3.80;99.90;;;;;;4917254;29;20197;-74
2022/01/18 01:03:46;;;;;;;9.87;7.93;;;3.80;99.90;;;;;;4916674;29;20219;-74
2022/01/18 01:06:12;;;;;;;10.03;8.00;;;3.70;99.90;;;;;;4915838;29;20234;-74
2022/01/18 01:08:38;;;;;;;10.07;7.93;;;3.70;99.90;;;;;;4915819;29;20213;-74
2022/01/18 01:11:05;;;;;;;11.07;8.27;;;3.70;99.90;;;;;;4917010;29;20231;-74
2022/01/18 01:13:32;;;;;;;12.47;8.60;;;3.70;99.90;;;;;;4917069;29;20211;-74
2022/01/18 01:42:55;;;;;;;10.10;7.50;;;3.70;99.90;;;;;;4916560;29;20374;-75
2022/01/18 01:45:18;;;;;;;11.50;7.87;;;3.70;99.90;;;;;;4915417;29;20775;-75
2022/01/18 01:47:49;;;;;;;10.40;7.77;;;3.70;99.90;;;;;;4916348;29;20210;-74
2022/01/18 01:50:18;;;;;;;9.43;7.63;;;3.70;99.90;;;;;;4916081;29;20231;-74
2022/01/18 01:52:44;;;;;;;11.40;7.73;;;3.70;99.90;;;;;;4916377;29;20184;-74
2022/01/18 01:55:10;;;;;;;10.40;7.73;;;3.60;99.90;;;;;;4915754;29;20200;-74
2022/01/18 01:57:36;;;;;;;13.50;8.20;;;3.60;99.90;;;;;;4916241;29;20179;-75
2022/01/18 02:00:12;;;;;;;11.90;8.67;;;3.60;99.90;;;;;;4916049;29;20191;-74
2022/01/18 02:02:38;;;;;;;10.77;7.90;;;3.60;99.90;;;;;;4915442;29;20267;-74
2022/01/18 02:05:04;;;;;;;12.43;7.77;;;3.60;99.90;;;;;;4915224;29;20219;-74
2022/01/18 02:07:30;;;;;;;9.73;7.40;;;3.80;99.90;;;;;;4915758;29;20180;-74
2022/01/18 02:09:55;;;;;;;10.63;7.67;;;3.80;99.90;;;;;;4915958;29;20209;-75
2022/01/18 02:12:21;;;;;;;9.57;7.40;;;3.70;99.90;;;;;;4915947;29;20249;-74
2022/01/18 02:14:52;;;;;;;11.23;7.87;;;3.70;99.90;;;;;;4915333;29;20304;-75
2022/01/18 02:22:50;;;;;;;10.93;8.47;;;3.50;99.90;;;;;;4915779;29;20255;-75
2022/01/18 02:25:15;;;;;;;10.10;7.70;;;3.50;99.90;;;;;;4914909;29;20192;-75
2022/01/18 02:27:41;;;;;;;11.57;8.27;;;3.50;99.90;;;;;;4915416;29;20524;-74
2022/01/18 02:30:07;;;;;;;10.90;8.30;;;3.50;99.90;;;;;;4915333;29;20226;-74
2022/01/18 02:32:32;;;;;;;10.33;7.50;;;3.50;99.90;;;;;;4915623;29;20188;-74
2022/01/18 02:34:58;;;;;;;9.40;8.10;;;3.40;99.90;;;;;;4914903;29;20217;-74
2022/01/18 02:37:23;;;;;;;10.33;7.90;;;3.50;99.90;;;;;;4915394;29;20661;-75
2022/01/18 02:39:49;;;;;;;12.33;8.97;;;3.60;99.90;;;;;;4915670;29;20180;-74
2022/01/18 02:42:23;;;;;;;9.93;8.10;;;3.60;99.90;;;;;;4915190;29;20576;-74
2022/01/18 02:44:50;;;;;;;10.77;8.53;;;3.60;99.90;;;;;;4914874;29;20211;-75
2022/01/18 02:47:19;;;;;;;8.93;7.57;;;3.60;99.90;;;;;;4915318;29;20265;-74
2022/01/18 02:49:46;;;;;;;10.40;7.97;;;3.60;99.90;;;;;;4915426;29;20258;-75
2022/01/18 02:52:12;;;;;;;9.83;7.43;;;3.50;99.90;;;;;;4915242;29;20203;-74
2022/01/18 02:54:38;;;;;;;12.77;8.20;;;3.60;99.90;;;;;;4914717;29;20569;-75
2022/01/18 02:57:06;;;;;;;10.50;7.60;;;3.50;99.90;;;;;;4915613;29;20605;-75
2022/01/18 02:59:46;;;;;;;9.77;7.60;;;3.60;99.90;;;;;;4916235;29;20190;-75
2022/01/18 03:05:03;;;;;;;10.70;8.20;;;3.50;99.90;;;;;;4914608;29;20244;-75
2022/01/18 03:07:28;;;;;;;9.17;7.40;;;3.50;99.90;;;;;;4914862;29;20171;-75
2022/01/18 03:09:54;;;;;;;11.57;8.60;;;3.50;99.90;;;;;;4915148;29;20176;-75
2022/01/18 03:12:19;;;;;;;11.90;8.13;;;3.50;99.90;;;;;;4915046;29;20226;-75
2022/01/18 03:14:45;;;;;;;14.03;9.07;;;3.60;99.90;;;;;;4914520;29;20182;-75
2022/01/18 03:17:10;;;;;;;13.93;9.37;;;3.60;99.90;;;;;;4913997;29;20172;-75
2022/01/18 03:19:36;;;;;;;12.93;8.37;;;3.50;99.90;;;;;;4914938;29;20207;-75
2022/01/18 03:22:02;;;;;;;9.73;8.10;;;3.50;99.90;;;;;;4914754;29;20556;-75
2022/01/18 03:29:37;;;;;;;14.80;8.43;;;3.40;99.90;;;;;;4915151;29;20179;-75
2022/01/18 03:32:04;;;;;;;11.47;8.33;;;3.30;99.90;;;;;;4917045;29;20188;-75
2022/01/18 03:34:30;;;;;;;13.40;8.67;;;3.30;99.90;;;;;;4917929;29;20191;-75
2022/01/18 03:36:56;;;;;;;12.87;8.63;;;3.30;99.90;;;;;;4918631;29;20184;-75
2022/01/18 03:39:21;;;;;;;12.53;9.00;;;3.30;99.90;;;;;;4918571;29;20447;-74
2022/01/18 03:42:15;;;;;;;10.70;8.90;;;3.30;99.90;;;;;;4918401;29;20660;-74
2022/01/18 03:44:42;;;;;;;14.00;8.70;;;3.40;99.90;;;;;;4917729;29;20582;-74
2022/01/18 03:47:08;;;;;;;11.57;9.70;;;3.40;99.90;;;;;;4918588;29;20181;-74
2022/01/18 03:49:36;;;;;;;11.03;8.83;;;3.40;99.90;;;;;;4901169;29;20191;-74
2022/01/18 03:52:02;;;;;;;12.17;9.07;;;3.40;99.90;;;;;;4918535;29;20608;-74
2022/01/18 03:54:27;;;;;;;12.20;9.60;;;3.50;99.90;;;;;;4917590;29;20304;-75
2022/01/18 03:56:53;;;;;;;13.37;9.60;;;3.50;99.90;;;;;;4918145;29;20196;-75
2022/01/18 03:59:18;;;;;;;21.17;10.53;;;3.50;99.90;;;;;;4918175;29;20263;-74
2022/01/18 04:01:44;;;;;;;17.67;9.63;;;3.50;99.90;;;;;;4917890;29;20176;-74
2022/01/18 04:04:10;;;;;;;15.17;10.40;;;3.50;99.90;;;;;;4917877;29;20224;-74
2022/01/18 04:06:35;;;;;;;19.13;10.17;;;3.50;99.90;;;;;;4917731;29;20195;-74
2022/01/18 04:09:01;;;;;;;16.53;9.77;;;3.50;99.90;;;;;;4918083;29;20722;-74
2022/01/18 04:11:27;;;;;;;13.30;9.43;;;3.70;99.90;;;;;;4917972;29;20660;-74
2022/01/18 04:13:52;;;;;;;15.17;10.63;;;3.70;99.90;;;;;;4917919;29;20183;-74
2022/01/18 04:16:18;;;;;;;15.37;10.03;;;3.60;99.90;;;;;;4917154;29;20199;-74
2022/01/18 04:19:00;;;;;;;15.73;9.90;;;3.50;99.90;;;;;;4917854;29;20184;-74
2022/01/18 04:26:57;;;;;;;14.90;10.47;;;3.50;99.90;;;;;;4917696;29;20199;-74
2022/01/18 04:29:23;;;;;;;13.67;10.67;;;3.50;99.90;;;;;;4917609;29;20187;-74
2022/01/18 04:31:49;;;;;;;15.67;11.17;;;3.50;99.90;;;;;;4917160;29;20602;-74
2022/01/18 04:34:15;;;;;;;13.03;10.57;;;3.50;99.90;;;;;;4916873;29;20188;-75
2022/01/18 04:36:40;;;;;;;14.67;10.37;;;3.50;99.90;;;;;;4917094;29;20741;-74
2022/01/18 04:39:06;;;;;;;13.77;10.63;;;3.50;99.90;;;;;;4916649;29;20176;-74
2022/01/18 04:41:32;;;;;;;13.77;10.97;;;3.30;99.90;;;;;;4917355;29;20192;-74
2022/01/18 04:49:08;;;;;;;14.27;10.57;;;3.50;99.90;;;;;;4917308;29;20269;-75
2022/01/18 04:51:34;;;;;;;14.97;10.27;;;3.50;99.90;;;;;;4917037;29;20175;-74
2022/01/18 04:54:02;;;;;;;12.83;10.20;;;3.50;99.90;;;;;;4917248;29;20264;-75
2022/01/18 04:57:51;;;;;;;13.00;9.93;;;3.50;99.90;;;;;;4916864;29;20300;-74
2022/01/18 04:59:17;;;;;;;12.17;10.23;;;3.60;99.90;;;;;;4916723;29;20560;-74
2022/01/18 05:01:47;;;;;;;14.57;10.00;;;3.60;99.90;;;;;;4917214;29;20180;-74
2022/01/18 05:04:12;;;;;;;15.30;10.07;;;3.60;99.90;;;;;;4916984;29;20220;-75
2022/01/18 05:06:38;;;;;;;13.23;10.13;;;3.50;99.90;;;;;;4916482;29;20188;-75
2022/01/18 05:09:09;;;;;;;14.37;9.73;;;3.50;99.90;;;;;;4916875;29;20238;-75
2022/01/18 05:11:43;;;;;;;14.23;9.87;;;3.50;99.90;;;;;;4917033;29;20179;-75
2022/01/18 05:14:28;;;;;;;13.17;9.47;;;3.60;99.90;;;;;;4916730;29;20263;-75
2022/01/18 05:17:07;;;;;;;12.87;9.47;;;3.50;99.90;;;;;;4916851;29;20226;-75
2022/01/18 05:24:31;;;;;;;14.23;9.57;;;3.50;99.90;;;;;;4915753;29;20597;-74
2022/01/18 05:26:59;;;;;;;16.57;10.17;;;3.50;99.90;;;;;;4916466;29;20179;-74
2022/01/18 05:29:25;;;;;;;14.63;10.23;;;3.50;99.90;;;;;;4916619;29;20589;-74
2022/01/18 05:31:51;;;;;;;14.30;10.23;;;3.50;99.90;;;;;;4916389;29;20580;-74
2022/01/18 05:34:17;;;;;;;12.80;9.60;;;3.50;99.90;;;;;;4916123;29;20195;-75
2022/01/18 05:36:43;;;;;;;15.07;10.30;;;3.50;99.90;;;;;;4916140;29;20208;-75
2022/01/18 05:39:09;;;;;;;17.40;10.87;;;3.60;99.90;;;;;;4916473;29;20577;-75
2022/01/18 05:41:36;;;;;;;12.63;9.50;;;3.60;99.90;;;;;;4915928;29;20259;-75
2022/01/18 05:44:02;;;;;;;12.60;9.70;;;3.60;99.90;;;;;;4916127;29;20219;-75
2022/01/18 05:46:28;;;;;;;16.77;10.77;;;3.60;99.90;;;;;;4915550;29;20203;-75
2022/01/18 05:48:53;;;;;;;15.17;11.03;;;3.60;99.90;;;;;;4916188;29;20270;-75
2022/01/18 05:51:19;;;;;;;20.20;13.10;;;3.60;99.90;;;;;;4916091;29;20258;-76
2022/01/18 05:53:44;;;;;;;18.17;12.73;;;3.60;99.90;;;;;;4915507;29;20554;-75
2022/01/18 05:56:11;;;;;;;19.97;14.13;;;3.70;99.90;;;;;;4915328;29;20202;-75
2022/01/18 05:58:38;;;;;;;28.47;15.23;;;3.70;99.90;;;;;;4916121;29;20183;-75
2022/01/18 06:01:04;;;;;;;24.77;16.07;;;3.70;99.90;;;;;;4916039;29;20187;-75
2022/01/18 06:03:52;;;;;;;24.07;17.03;;;3.70;99.90;;;;;;4915919;29;20210;-75
2022/01/18 06:08:58;;;;;;;31.47;19.40;;;3.80;99.90;;;;;;4915915;29;20688;-74
2022/01/18 06:11:24;;;;;;;31.20;20.93;;;3.90;99.90;;;;;;4915833;29;20180;-75
2022/01/18 06:13:49;;;;;;;35.03;22.00;;;3.90;99.90;;;;;;4915709;29;20275;-74
2022/01/18 06:16:15;;;;;;;39.63;22.47;;;3.90;99.90;;;;;;4915280;29;20283;-75
2022/01/18 06:18:40;;;;;;;40.07;23.20;;;3.80;99.90;;;;;;4921346;29;20190;-75
2022/01/18 06:21:06;;;;;;;38.77;23.40;;;3.80;99.90;;;;;;4925693;29;20179;-75
2022/01/18 06:23:32;;;;;;;43.27;25.20;;;3.70;99.90;;;;;;4932357;29;20302;-75
2022/01/18 06:25:58;;;;;;;42.57;24.43;;;3.70;99.90;;;;;;4930841;29;20203;-73
2022/01/18 06:28:24;;;;;;;40.37;23.57;;;3.80;99.90;;;;;;4933188;29;20270;-75
2022/01/18 06:30:49;;;;;;;44.50;24.43;;;3.80;99.90;;;;;;4933969;29;20263;-76
2022/01/18 06:33:15;;;;;;;40.73;23.17;;;3.70;99.90;;;;;;4933942;29;20212;-76
2022/01/18 06:35:40;;;;;;;37.83;24.13;;;3.80;99.90;;;;;;4934113;29;20285;-76
2022/01/18 06:38:08;;;;;;;38.37;22.83;;;3.80;99.90;;;;;;4934535;29;20183;-75
2022/01/18 06:40:33;;;;;;;39.37;23.43;;;3.70;99.90;;;;;;4934672;29;20179;-75
2022/01/18 06:42:59;;;;;;;42.63;27.13;;;3.70;99.90;;;;;;4933764;29;20464;-74
2022/01/18 06:45:25;;;;;;;47.17;25.63;;;3.60;99.90;;;;;;4933665;29;20695;-75
2022/01/18 06:47:50;;;;;;;41.03;24.80;;;3.60;99.90;;;;;;4935686;29;20207;-75
2022/01/18 06:50:16;;;;;;;42.93;23.33;;;3.60;99.90;;;;;;4935044;29;20180;-75
2022/01/18 06:52:41;;;;;;;39.77;23.57;;;3.60;99.90;;;;;;4933762;29;20261;-74
2022/01/18 06:55:08;;;;;;;45.17;24.17;;;3.70;99.90;;;;;;4934397;29;20206;-74
2022/01/18 06:57:33;;;;;;;45.60;25.70;;;3.70;99.90;;;;;;4934610;29;20592;-73
2022/01/18 07:00:00;;;;;;;39.40;24.43;;;3.80;99.90;;;;;;4934317;29;20202;-74
2022/01/18 07:02:26;;;;;;;48.17;26.13;;;3.80;99.90;;;;;;4933411;29;20637;-74
2022/01/18 07:04:51;;;;;;;41.40;25.73;;;3.80;99.90;;;;;;4932528;29;20323;-73
2022/01/18 07:07:18;;;;;;;45.10;25.97;;;3.80;99.90;;;;;;4937470;29;20183;-74
2022/01/18 07:09:44;;;;;;;43.47;24.03;;;3.80;99.90;;;;;;4938150;29;20190;-73
2022/01/18 07:12:12;;;;;;;43.70;24.77;;;3.70;99.90;;;;;;4937990;29;20175;-75
2022/01/18 07:14:38;;;;;;;43.77;25.27;;;3.70;99.90;;;;;;4937369;29;20211;-75
2022/01/18 07:17:04;;;;;;;39.73;22.30;;;3.70;99.90;;;;;;4937827;29;20187;-73
2022/01/18 07:19:32;;;;;;;39.63;23.37;;;3.70;99.90;;;;;;4937446;29;20337;-74
2022/01/18 07:22:00;;;;;;;41.23;23.20;;;3.70;99.90;;;;;;4937545;29;20628;-75
2022/01/18 07:24:38;;;;;;;40.90;23.80;;;3.80;99.90;;;;;;4936955;29;20718;-74
2022/01/18 07:27:07;;;;;;;40.00;22.77;;;3.80;99.90;;;;;;4937805;29;20238;-75
2022/01/18 07:29:33;;;;;;;38.53;22.37;;;3.80;99.90;;;;;;4937559;29;20179;-75
2022/01/18 07:31:59;;;;;;;37.87;22.73;;;3.80;99.90;;;;;;4937699;29;20207;-75
2022/01/18 07:34:25;;;;;;;37.00;20.73;;;3.80;99.90;;;;;;4937147;29;20198;-76
2022/01/18 07:36:50;;;;;;;34.10;20.70;;;3.70;99.90;;;;;;4937643;29;20290;-75
2022/01/18 07:39:16;;;;;;;34.63;20.77;;;3.70;99.90;;;;;;4937552;29;20266;-76
2022/01/18 07:41:41;;;;;;;30.37;20.87;;;3.60;99.90;;;;;;4937401;29;20179;-75
2022/01/18 07:44:07;;;;;;;35.87;20.97;;;3.50;99.90;;;;;;4937014;29;20210;-75
2022/01/18 07:46:32;;;;;;;37.93;20.63;;;3.50;99.90;;;;;;4919997;29;20218;-74
2022/01/18 07:48:58;;;;;;;33.03;19.00;;;4.10;99.90;;;;;;4918206;29;20180;-75
2022/01/18 07:51:23;;;;;;;33.40;18.37;;;4.90;99.90;;;;;;4918296;29;20267;-75
2022/01/18 07:53:49;;;;;;;30.47;17.10;;;5.70;99.90;;;;;;4918289;29;20195;-73
2022/01/18 07:56:14;;;;;;;26.30;16.93;;;6.00;1.00;;;;;;4917627;29;20214;-73
2022/01/18 07:58:40;;;;;;;23.03;16.17;;;6.90;1.00;;;;;;4918066;29;20195;-73
2022/01/18 08:01:05;;;;;;;21.80;15.40;;;7.40;1.00;;;;;;4931560;29;20790;-73
2022/01/18 08:03:31;;;;;;;20.47;15.40;;;7.80;99.90;;;;;;4935661;29;20694;-73
2022/01/18 08:05:57;;;;;;;20.80;15.07;;;8.00;99.90;;;;;;4935717;29;20652;-73
2022/01/18 08:08:23;;;;;;;21.37;15.37;;;8.50;1.00;;;;;;4936667;29;20226;-74
2022/01/18 08:10:48;;;;;;;19.73;14.23;;;8.50;99.90;;;;;;4936824;29;20266;-75
2022/01/18 08:13:14;;;;;;;20.23;14.43;;;8.70;1.00;;;;;;4936700;29;20667;-74
2022/01/18 08:15:42;;;;;;;19.27;14.77;;;8.90;1.00;;;;;;4936080;29;20202;-74
2022/01/18 08:18:11;;;;;;;16.07;12.50;;;9.50;99.90;;;;;;4936373;29;20258;-74
2022/01/18 08:20:36;;;;;;;19.27;13.63;;;10.30;99.90;;;;;;4936810;29;20179;-74
2022/01/18 08:23:02;;;;;;;18.60;13.43;;;10.70;1.00;;;;;;4936670;29;20429;-74
2022/01/18 08:25:29;;;;;;;16.70;13.63;;;11.10;1.00;;;;;;4936006;29;20237;-74
2022/01/18 08:27:55;;;;;;;17.60;13.33;;;11.10;1.00;;;;;;4936591;29;20187;-74
2022/01/18 08:30:20;;;;;;;19.73;14.67;;;10.50;1.00;;;;;;4936536;29;20226;-74
2022/01/18 08:32:48;;;;;;;16.73;14.77;;;9.10;1.00;;;;;;4936030;29;20641;-74
2022/01/18 08:35:14;;;;;;;18.93;15.33;;;9.00;99.90;;;;;;4936106;29;20254;-73
2022/01/18 08:37:40;;;;;;;19.77;15.17;;;9.50;2.70;;;;;;4936542;29;20661;-73
2022/01/18 08:40:06;;;;;;;17.10;14.93;;;9.10;1.00;;;;;;4936251;29;20186;-74
2022/01/18 08:42:32;;;;;;;19.33;14.80;;;8.20;1.00;;;;;;4936082;29;20231;-72
2022/01/18 08:44:58;;;;;;;19.17;15.47;;;7.00;1.00;;;;;;4935520;29;20266;-73
2022/01/18 08:47:24;;;;;;;21.77;16.40;;;6.00;1.00;;;;;;4936382;29;20171;-73
2022/01/18 08:49:50;;;;;;;23.60;17.97;;;5.40;99.90;;;;;;4936259;29;20191;-74
2022/01/18 08:52:16;;;;;;;26.27;19.10;;;5.40;99.90;;;;;;4936146;29;20175;-73
2022/01/18 08:54:43;;;;;;;24.53;17.77;;;5.70;93.90;;;;;;4935431;29;20536;-73
2022/01/18 08:57:10;;;;;;;26.23;19.10;;;5.60;31.50;;;;;;4936075;29;20555;-73
2022/01/18 08:59:36;;;;;;;26.00;18.33;;;5.70;14.20;;;;;;4935786;29;20183;-73
2022/01/18 09:02:06;;;;;;;28.97;18.93;;;5.50;99.90;;;;;;4936070;29;20187;-73
2022/01/18 09:04:33;;;;;;;40.23;20.97;;;5.50;99.90;;;;;;4935333;29;20219;-73
2022/01/18 09:07:02;;;;;;;27.87;18.47;;;5.60;99.90;;;;;;4936037;29;20183;-73
2022/01/18 09:09:28;;;;;;;26.33;18.33;;;5.70;99.90;;;;;;4935864;29;20183;-73
2022/01/18 09:11:53;;;;;;;29.50;20.17;;;5.50;99.90;;;;;;4935550;29;20187;-74
2022/01/18 09:14:19;;;;;;;27.53;19.33;;;5.40;99.90;;;;;;4935206;29;20182;-73
2022/01/18 09:16:44;;;;;;;27.27;18.03;;;4.90;99.90;;;;;;4935496;29;20205;-73
2022/01/18 09:19:11;;;;;;;28.90;19.20;;;4.80;99.90;;;;;;4935833;29;20175;-74
2022/01/18 09:21:37;;;;;;;30.50;19.13;;;4.60;99.90;;;;;;4935493;29;20195;-74
2022/01/18 09:24:03;;;;;;;31.57;19.50;;;4.60;99.90;;;;;;4935548;29;20296;-74
2022/01/18 09:26:29;;;;;;;33.03;20.10;;;4.50;99.90;;;;;;4935013;29;20207;-74
2022/01/18 09:28:55;;;;;;;30.17;18.57;;;4.50;99.90;;;;;;4934752;29;20250;-73
2022/01/18 09:31:20;;;;;;;29.93;19.23;;;4.80;99.90;;;;;;4935521;29;20190;-73
2022/01/18 09:33:46;;;;;;;34.00;19.27;;;5.40;99.90;;;;;;4935419;29;20712;-73
2022/01/18 09:36:12;;;;;;;25.17;17.97;;;5.90;99.90;;;;;;4934821;29;20668;-73
2022/01/18 09:38:37;;;;;;;27.63;18.87;;;5.90;92.00;;;;;;4935198;29;20238;-73
2022/01/18 09:41:09;;;;;;;26.30;18.03;;;5.90;99.90;;;;;;4935060;29;20194;-72
2022/01/18 09:43:37;;;;;;;26.30;17.07;;;6.70;34.00;;;;;;4935112;29;20219;-73
2022/01/18 09:46:04;;;;;;;24.37;17.13;;;7.60;1.00;;;;;;4934205;29;20219;-73
2022/01/18 09:48:29;;;;;;;23.47;16.17;;;8.50;1.00;;;;;;4933564;29;20190;-72
2022/01/18 09:51:02;;;;;;;26.57;17.10;;;9.10;1.00;;;;;;5069207;28;20618;-74
2022/01/18 09:53:29;;;;;;;24.77;16.70;;;9.60;1.00;;;;;;5084544;22;20178;-79
2022/01/18 09:55:55;;;;;;;26.07;16.50;;;8.80;99.90;;;;;;5054251;28;20707;-77
2022/01/18 09:58:20;;;;;;;23.67;16.67;;;7.70;1.00;;;;;;5054990;28;20173;-79
2022/01/18 10:00:48;;;;;;;22.23;16.87;;;6.90;1.00;;;;;;5054972;28;20555;-78
2022/01/18 10:03:26;;;;;;;23.90;16.70;;;7.40;1.00;;;;;;5059720;28;20227;-80
2022/01/18 10:05:52;;;;;;;22.57;15.73;;;7.50;99.90;;;;;;5057117;28;20203;-84
2022/01/18 10:08:18;;;;;;;25.33;16.50;;;6.70;1.00;;;;;;5047683;28;20191;-85
2022/01/18 10:10:50;;;;;;;23.80;17.33;;;6.10;1.00;;;;;;5049571;28;20255;-85
2022/01/18 10:13:24;;;;;;;24.00;15.40;;;6.30;1.00;;;;;;5046336;28;20260;-80
2022/01/18 10:16:11;;;;;;;25.07;16.87;;;5.70;1.00;;;;;;5054674;28;20197;-84
2022/01/18 10:19:03;;;;;;;28.70;17.63;;;5.40;54.10;;;;;;5048685;28;20655;-80
2022/01/18 10:21:34;;;;;;;23.13;15.83;;;5.80;28.50;;;;;;5047697;28;20178;-82
2022/01/18 10:24:20;;;;;;;24.67;16.27;;;6.40;1.00;;;;;;5054498;28;20179;-80
2022/01/18 10:26:49;;;;;;;25.00;15.50;;;6.20;1.00;;;;;;5063658;28;20195;-82
2022/01/18 10:29:16;;;;;;;23.67;16.27;;;6.10;1.00;;;;;;5071618;28;20222;-83
2022/01/18 10:31:57;;;;;;;24.83;15.83;;;5.90;1.00;;;;;;5071230;28;20235;-81
2022/01/18 10:37:12;;;;;;;25.70;17.03;;;6.10;1.00;;;;;;5069490;28;20175;-83
2022/01/18 10:39:41;;;;;;;27.57;17.03;;;6.10;1.00;;;;;;5068140;28;20238;-84
2022/01/18 10:42:30;;;;;;;26.07;16.87;;;6.00;1.00;;;;;;5068544;28;20234;-84
2022/01/18 10:45:33;;;;;;;27.20;16.03;;;6.10;1.00;;;;;;5066733;28;20195;-86
2022/01/18 10:48:22;;;;;;;21.73;14.00;;;6.10;1.00;;;;;;5062903;28;20198;-81
2022/01/18 10:50:47;;;;;;;20.13;12.60;;;6.00;1.00;;;;;;5055867;28;20284;-83
2022/01/18 10:53:15;;;;;;;22.10;13.47;;;6.20;1.00;;;;;;5055060;28;20191;-82
2022/01/18 10:55:41;;;;;;;20.60;13.33;;;6.40;1.00;;;;;;5051978;28;20218;-83
2022/01/18 10:58:21;;;;;;;21.27;13.33;;;6.50;1.00;;;;;;5063874;28;20179;-83
2022/01/18 11:00:46;;;;;;;19.50;13.37;;;6.70;1.00;;;;;;5057449;28;20179;-82
2022/01/18 11:03:12;;;;;;;23.27;14.77;;;6.70;1.00;;;;;;5052024;28;20198;-80
2022/01/18 11:05:41;;;;;;;19.77;13.13;;;7.10;1.00;;;;;;5052434;28;20617;-82
2022/01/18 11:08:07;;;;;;;21.30;12.77;;;7.50;99.90;;;;;;5057936;28;20236;-85
2022/01/18 11:10:38;;;;;;;17.37;12.27;;;7.70;99.90;;;;;;5054322;28;20715;-85
2022/01/18 11:13:20;;;;;;;19.87;11.87;;;7.60;99.90;;;;;;5041530;28;20195;-83
2022/01/18 11:15:48;;;;;;;17.57;12.27;;;7.30;99.90;;;;;;5036878;28;20211;-89
2022/01/18 11:18:17;;;;;;;18.67;11.70;;;7.10;99.90;;;;;;5064314;28;20182;-83
2022/01/18 11:20:45;;;;;;;19.43;12.03;;;7.00;99.90;;;;;;5064210;28;20205;-84
2022/01/18 11:23:12;;;;;;;16.67;11.93;;;7.40;99.90;;;;;;5060508;28;20179;-83
2022/01/18 11:25:38;;;;;;;20.47;12.67;;;7.30;99.90;;;;;;5059442;28;20191;-82
2022/01/18 11:28:06;;;;;;;17.23;11.83;;;8.90;1.00;;;;;;5059578;28;20190;-83
2022/01/18 11:30:35;;;;;;;17.33;12.03;;;8.20;99.90;;;;;;5060591;28;20282;-84
2022/01/18 11:33:04;;;;;;;17.40;11.90;;;8.10;1.00;;;;;;5040736;28;20184;-82
2022/01/18 11:35:45;;;;;;;16.67;11.37;;;10.30;1.00;;;;;;5021379;28;20722;-83
2022/01/18 11:38:22;;;;;;;18.80;12.07;;;9.30;19.10;;;;;;5023613;28;20473;-82
2022/01/18 11:40:49;;;;;;;14.63;11.13;;;8.70;1.00;;;;;;5024890;28;20180;-85
2022/01/18 11:43:32;;;;;;;15.33;11.60;;;8.20;1.00;;;;;;5025530;28;20270;-84
2022/01/18 11:45:58;;;;;;;14.80;10.97;;;7.80;99.90;;;;;;5026354;28;20212;-83
2022/01/18 11:48:24;;;;;;;15.13;10.33;;;7.20;99.90;;;;;;5028602;28;20296;-85
2022/01/18 11:51:00;;;;;;;18.30;10.70;;;6.90;99.90;;;;;;5029120;28;20220;-83
2022/01/18 11:53:44;;;;;;;15.47;9.17;;;6.80;99.90;;;;;;5029111;28;20180;-84
2022/01/18 11:56:31;;;;;;;16.03;9.73;;;6.50;43.30;;;;;;5028722;28;20208;-85
2022/01/18 11:59:11;;;;;;;17.53;10.77;;;6.30;99.90;;;;;;5026700;28;20367;-83
2022/01/18 12:01:52;;;;;;;17.43;10.57;;;6.40;1.00;;;;;;5026986;28;20185;-84
2022/01/18 12:04:49;;;;;;;15.47;9.60;;;6.40;1.00;;;;;;5023978;28;20199;-84
2022/01/18 12:07:36;;;;;;;14.87;10.30;;;6.20;1.00;;;;;;5022270;28;20174;-82
2022/01/18 12:10:06;;;;;;;15.90;10.03;;;6.00;1.00;;;;;;5023310;28;20787;-84
2022/01/18 12:12:45;;;;;;;17.37;10.60;;;5.90;1.00;;;;;;5020761;28;20181;-81
2022/01/18 12:15:19;;;;;;;17.33;11.53;;;5.80;1.00;;;;;;5023211;28;20604;-83
2022/01/18 12:17:49;;;;;;;17.23;11.10;;;5.70;1.00;;;;;;5026748;28;20619;-85
2022/01/18 12:20:37;;;;;;;16.03;10.00;;;5.70;1.00;;;;;;5026299;28;20172;-82
2022/01/18 12:23:07;;;;;;;14.90;10.73;;;5.60;1.00;;;;;;5022915;28;20173;-83
2022/01/18 12:26:03;;;;;;;16.10;10.43;;;5.60;1.00;;;;;;5023862;28;20223;-81
2022/01/18 12:34:30;;;;;;;16.27;10.53;;;5.70;1.00;;;;;;5026590;28;20180;-85
2022/01/18 12:37:08;;;;;;;17.23;10.17;;;5.70;1.00;;;;;;5033621;28;20200;-84
2022/01/18 12:45:12;;;;;;;16.27;10.20;;;7.80;1.00;;;;;;5036917;28;20195;-86
2022/01/18 12:47:48;;;;;;;12.30;8.50;;;10.50;1.00;;;;;;5037214;28;20186;-85
2022/01/18 12:50:16;;;;;;;11.63;8.07;;;11.60;99.90;;;;;;5030898;28;20216;-88
2022/01/18 12:52:49;;;;;;;12.37;8.00;;;11.90;99.90;;;;;;5035720;28;20180;-86
2022/01/18 12:55:32;;;;;;;12.17;7.40;;;12.50;1.00;;;;;;5044905;28;20219;-89
2022/01/18 12:58:05;;;;;;;9.27;6.50;;;12.40;1.00;;;;;;5035389;28;20216;-82
2022/01/18 13:00:54;;;;;;;10.27;7.60;;;10.00;99.90;;;;;;5032805;28;20569;-83
2022/01/18 13:03:29;;;;;;;9.40;6.60;;;8.40;1.00;;;;;;5042968;28;20826;-83
2022/01/18 13:05:57;;;;;;;11.67;7.80;;;8.20;99.90;;;;;;5040490;28;20195;-85
2022/01/18 13:08:38;;;;;;;10.83;6.90;;;7.50;1.00;;;;;;5040632;28;20215;-84
2022/01/18 13:11:04;;;;;;;12.63;6.50;;;7.40;1.00;;;;;;5036166;28;20219;-85
2022/01/18 13:13:32;;;;;;;10.83;6.93;;;7.00;1.00;;;;;;5039673;28;20181;-84
2022/01/18 13:24:27;;;;;;;7.77;5.13;;;6.40;1.00;;;;;;5042381;28;20198;-82
2022/01/18 13:27:00;;;;;;;7.17;4.77;;;6.30;75.70;;;;;;5038940;28;20582;-84
2022/01/18 13:29:27;;;;;;;7.20;4.43;;;6.30;1.00;;;;;;5045066;28;20239;-84
2022/01/18 13:32:15;;;;;;;7.83;4.40;;;6.30;99.90;;;;;;5039513;28;20184;-84
2022/01/18 13:34:44;;;;;;;10.37;4.80;;;6.20;99.90;;;;;;5034368;28;20173;-87
2022/01/18 13:37:12;;;;;;;6.63;4.17;;;6.10;99.90;;;;;;5037383;28;20180;-88
2022/01/18 13:39:48;;;;;;;8.13;5.13;;;6.00;99.90;;;;;;5037532;28;20177;-89
2022/01/18 13:42:16;;;;;;;7.17;5.00;;;6.00;99.90;;;;;;5037504;28;20188;-85
2022/01/18 13:45:07;;;;;;;8.50;4.73;;;5.90;99.90;;;;;;5035997;28;20180;-86
2022/01/18 13:48:00;;;;;;;12.33;5.30;;;5.90;99.90;;;;;;5030331;28;20176;-84
2022/01/18 13:50:43;;;;;;;10.17;5.27;;;6.10;99.90;;;;;;5030573;28;20247;-85
2022/01/18 13:53:20;;;;;;;9.13;4.57;;;6.40;99.90;;;;;;5030928;28;20176;-86
2022/01/18 13:55:56;;;;;;;6.90;4.77;;;6.40;99.90;;;;;;5030815;28;20235;-84
2022/01/18 13:58:26;;;;;;;7.60;4.37;;;6.70;99.90;;;;;;5031151;28;20187;-85
2022/01/18 14:01:03;;;;;;;6.67;4.73;;;6.60;1.00;;;;;;5032436;28;20181;-85
2022/01/18 14:03:30;;;;;;;7.67;4.83;;;6.50;99.90;;;;;;5032450;28;20188;-87
2022/01/18 14:05:56;;;;;;;6.07;4.47;;;6.30;99.90;;;;;;5037084;28;20240;-89
2022/01/18 14:08:32;;;;;;;11.53;5.30;;;6.30;99.90;;;;;;5037341;28;20188;-88
2022/01/18 14:11:02;;;;;;;7.10;4.57;;;6.20;99.90;;;;;;5037359;28;20212;-88
2022/01/18 14:13:30;;;;;;;6.53;4.63;;;6.20;99.90;;;;;;5037207;28;20176;-88
2022/01/18 14:15:56;;;;;;;7.87;4.60;;;6.10;4.10;;;;;;5036876;28;20212;-90
2022/01/18 14:18:21;;;;;;;7.77;4.70;;;6.00;99.90;;;;;;5037035;28;20191;-88
2022/01/18 14:20:47;;;;;;;5.57;4.20;;;6.00;99.90;;;;;;5031733;28;20185;-84
2022/01/18 14:23:20;;;;;;;7.90;4.40;;;5.90;99.90;;;;;;5032256;28;20172;-89
2022/01/18 14:25:46;;;;;;;7.87;5.00;;;6.00;99.90;;;;;;5031438;28;20195;-86